Current | Forecast
Updated: 4:00 PM JST on March 29, 2017
Observed at Aomori Airport, Japan
Temperature 43°F
Windchill 37°F
Humidity 53%
Dew Point 27°F
Wind WSW at 12 mph
Pressure 30.04 in (Steady)
Conditions Partly Cloudy
Visibility 6.2 miles
UV 1 out of 16
Clouds (FEW) : 2000 ft
Scattered Clouds (SCT) : 4000 ft
Mostly Cloudy (BKN) : 5000 ft
(FEW) : 5000 ft
Yesterday's Maximum 39°F
Yesterday's Minimum 32°F approx.
Yesterday's Heating Degree Days 29 approx.
Sunrise5:23 AM JST
Sunset5:56 PM JST
Moon Rise6:10 AM JST
Moon Set7:14 PM JST
Moon PhaseMoon Phase
New Moon
Raw METARMETAR RJSA 290700Z 25010KT 9999 FEW020 SCT040 BKN050 FEW050CB 06/M03 Q1017


Monday
. High: 61° F.
Tuesday
. High: 62° F.
Wednesday
. High: 59° F.
Thursday
. High: 59° F.
Friday
. High: 60° F.
Saturday
. High: 60° F.
Sunday
. High: 55° F.
Monday
. High: 55° F.

Units: English | Metric

Find the Weather for any City, State or Zipcode, or Country:

U.S. State List | Severe Weather | Tropical Storms | Ski Conditions
United States | Canada | Central America | South America | Asia | Europe | Australia | Africa | Islands

Weather Underground

© Copyright 2017
The Weather Company, LLC